Time;durP1;ratioP1;P1;durP2;ratioP2;P2;SDS_P1;SDS_P2;PMS_P1;PMS_P2;Temp;Humidity;BMP_temperature;BMP_pressure;BME280_temperature;BME280_humidity;BME280_pressure;Samples;Min_cycle;Max_cycle;Signal;HPM_P1;HPM_P2
2022/10/16 03:47:20;;;;;;;5.80;3.95;;;;;;;;;;6055489;23;20036;31
2022/10/16 03:49:45;;;;;;;5.32;3.75;;;;;;;;;;4866362;29;20538;-79
2022/10/16 03:52:10;;;;;;;7.07;3.95;;;;;;;12.05;100.00;68104.41;4859121;29;20061;-79
2022/10/16 03:54:36;;;;;;;7.03;4.20;;;;;;;12.04;100.00;68105.97;4832581;29;20046;-79
2022/10/16 03:57:01;;;;;;;7.65;4.05;;;;;;;12.07;100.00;68108.81;4833744;29;20050;-80
2022/10/16 03:59:26;;;;;;;6.82;4.15;;;;;;;12.08;100.00;68109.94;4840694;29;20049;-80
2022/10/16 04:01:52;;;;;;;9.48;4.45;;;;;;;12.07;100.00;68109.38;4831404;29;20042;-80
2022/10/16 04:04:17;;;;;;;7.60;4.90;;;;;;;12.08;100.00;68109.94;4836239;29;20097;-80
2022/10/16 04:06:43;;;;;;;6.13;5.07;;;;;;;12.08;100.00;68110.50;4847024;29;20053;-80
2022/10/16 04:09:08;;;;;;;6.10;4.40;;;;;;;12.10;100.00;68112.22;4855890;29;20046;-80
2022/10/16 04:11:33;;;;;;;8.55;5.47;;;;;;;12.09;100.00;68111.09;4835246;29;20490;-80
2022/10/16 04:13:59;;;;;;;8.68;5.40;;;;;;;;;;4848663;29;20580;-78
2022/10/16 04:16:24;;;;;;;7.05;5.30;;;;;;;12.05;100.00;68103.84;4845172;29;20605;-80
2022/10/16 04:18:50;;;;;;;7.68;5.72;;;;;;;12.04;100.00;68105.41;4849406;29;20069;-79
2022/10/16 04:21:15;;;;;;;8.18;4.95;;;;;;;12.04;100.00;68110.72;4861512;29;20121;-78
2022/10/16 04:23:41;;;;;;;8.57;5.22;;;;;;;;;;4836705;29;20053;-80
2022/10/16 04:26:07;;;;;;;7.47;4.40;;;;;;;12.02;100.00;68101.00;4836442;29;20077;-80
2022/10/16 04:28:32;;;;;;;7.90;4.57;;;;;;;12.02;100.00;68103.13;4845707;29;20046;-79
2022/10/16 04:30:57;;;;;;;7.43;5.13;;;;;;;;;;4834678;29;20178;-80
2022/10/16 04:33:23;;;;;;;8.73;5.57;;;;;;;;;;4836625;29;20023;-79
2022/10/16 04:35:48;;;;;;;7.80;4.82;;;;;;;12.00;100.00;68098.75;4821912;29;20280;-80
2022/10/16 04:38:13;;;;;;;7.85;5.07;;;;;;;12.06;100.00;68107.69;4821944;29;20046;-79
2022/10/16 04:40:39;;;;;;;8.32;4.60;;;;;;;12.03;100.00;68101.59;4850498;29;20185;-80
2022/10/16 04:43:05;;;;;;;7.78;5.10;;;;;;;12.04;100.00;68102.72;4839210;29;20077;-79
2022/10/16 04:45:30;;;;;;;6.15;4.13;;;;;;;;;;4836276;29;20450;-79
2022/10/16 04:47:59;;;;;;;6.15;4.50;;;;;;;12.04;100.00;68105.97;4836257;29;20056;-79
2022/10/16 04:50:25;;;;;;;5.93;3.90;;;;;;;12.03;100.00;68104.28;4841022;29;20054;-80
2022/10/16 04:52:50;;;;;;;7.28;4.20;;;;;;;12.05;100.00;68107.09;4858868;29;20041;-79
2022/10/16 04:55:16;;;;;;;6.75;4.10;;;;;;;;;;4842497;29;20122;-80
2022/10/16 04:57:41;;;;;;;6.55;3.67;;;;;;;12.06;100.00;68107.69;4847371;29;20061;-80
2022/10/16 05:00:07;;;;;;;7.95;3.90;;;;;;;;;;4845306;29;20494;-79
2022/10/16 05:02:33;;;;;;;5.57;3.80;;;;;;;12.08;100.00;68107.25;4846875;29;20046;-80
2022/10/16 05:04:58;;;;;;;7.40;3.60;;;;;;;12.09;100.00;68111.09;4842999;29;20053;-79
2022/10/16 05:07:24;;;;;;;6.10;3.50;;;;;;;12.09;100.00;68116.41;4839619;29;20083;-80
2022/10/16 05:09:49;;;;;;;6.40;3.25;;;;;;;12.10;100.00;68112.22;4843770;29;20124;-81
2022/10/16 05:12:14;;;;;;;6.40;3.95;;;;;;;12.09;100.00;68111.09;4839185;29;20042;-80
2022/10/16 05:14:40;;;;;;;5.57;3.63;;;;;;;12.04;100.00;68110.72;4843825;29;20068;-80
2022/10/16 05:17:05;;;;;;;5.43;3.70;;;;;;;12.02;100.00;68103.69;4844269;29;20046;-80
2022/10/16 05:19:31;;;;;;;5.35;3.22;;;;;;;;;;4844298;29;20049;-80
2022/10/16 05:21:56;;;;;;;5.63;3.40;;;;;;;12.02;100.00;68109.03;4847646;29;20045;-81
2022/10/16 05:24:21;;;;;;;6.25;3.30;;;;;;;12.02;100.00;68103.13;4843455;29;20057;-79
2022/10/16 05:26:47;;;;;;;8.50;3.67;;;;;;;;;;4842415;29;20518;-80
2022/10/16 05:29:12;;;;;;;6.70;3.40;;;;;;;12.01;100.00;68102.00;4844169;29;20053;-79
2022/10/16 05:31:37;;;;;;;5.63;3.53;;;;;;;12.01;100.00;68102.56;4844072;29;20060;-80
2022/10/16 05:34:02;;;;;;;5.20;3.35;;;;;;;12.01;100.00;68107.31;4845230;29;20482;-81
2022/10/16 05:36:28;;;;;;;7.72;3.42;;;;;;;;;;4845751;29;20099;-79
2022/10/16 05:38:53;;;;;;;4.05;3.28;;;;;;;;;;4839768;29;20049;-81
2022/10/16 05:41:25;;;;;;;8.07;3.15;;;;;;;12.02;100.00;68100.44;4843810;29;20046;-80
2022/10/16 05:43:50;;;;;;;5.45;2.97;;;;;;;;;;4833357;29;20034;-81
2022/10/16 05:46:16;;;;;;;6.47;3.60;;;;;;;;;;4837325;29;20111;-80
2022/10/16 05:48:41;;;;;;;6.38;3.25;;;;;;;;;;4843985;29;20306;-80
2022/10/16 05:51:11;;;;;;;7.30;3.50;;;;;;;11.98;100.00;68099.16;4845218;29;20080;-80
2022/10/16 05:53:38;;;;;;;5.45;3.25;;;;;;;11.97;100.00;68098.03;4843428;29;20045;-80
2022/10/16 05:56:04;;;;;;;4.57;3.13;;;;;;;;;;4837140;29;20102;-81
2022/10/16 05:58:35;;;;;;;5.90;3.47;;;;;;;11.98;100.00;68095.91;4842962;29;20041;-79
2022/10/16 06:01:06;;;;;;;5.97;3.85;;;;;;;11.97;100.00;68092.69;4842898;29;20049;-81
2022/10/16 06:03:32;;;;;;;7.53;3.50;;;;;;;11.95;100.00;68096.31;4844630;29;20033;-80
2022/10/16 06:05:58;;;;;;;5.45;3.10;;;;;;;;;;4842213;29;20394;-80
2022/10/16 06:08:23;;;;;;;6.45;3.70;;;;;;;11.95;100.00;68093.06;4842569;29;20054;-80
2022/10/16 06:11:00;;;;;;;6.93;4.15;;;;;;;11.94;100.00;68095.19;4846710;29;20045;-80
2022/10/16 06:13:25;;;;;;;8.23;3.65;;;;;;;11.89;100.00;68089.50;4840205;29;20402;-80
2022/10/16 06:15:51;;;;;;;8.05;4.32;;;;;;;11.88;100.00;68087.78;4838791;29;20046;-78
2022/10/16 06:18:16;;;;;;;6.15;4.18;;;;;;;11.87;100.00;68084.53;4841865;29;20057;-80
2022/10/16 06:20:41;;;;;;;6.35;3.70;;;;;;;11.87;100.00;68087.22;4835433;29;20057;-80
2022/10/16 06:23:07;;;;;;;9.02;3.72;;;;;;;11.87;100.00;68086.66;4839528;29;20069;-80
2022/10/16 06:25:32;;;;;;;5.65;3.47;;;;;;;;;;4842135;29;20515;-81
2022/10/16 06:27:57;;;;;;;7.15;3.70;;;;;;;11.85;100.00;68084.94;4842304;29;20049;-81
2022/10/16 06:30:23;;;;;;;7.78;3.53;;;;;;;11.84;100.00;68083.22;4837081;29;20046;-79
2022/10/16 06:32:48;;;;;;;8.63;3.65;;;;;;;11.85;100.00;68084.94;4837070;29;20222;-79
2022/10/16 06:35:13;;;;;;;8.55;4.35;;;;;;;;;;4839661;29;20050;-80
2022/10/16 06:37:39;;;;;;;11.27;4.05;;;;;;;11.83;100.00;68082.09;4852851;29;20045;-78
2022/10/16 06:40:04;;;;;;;8.80;4.53;;;;;;;;;;4844784;29;20529;-80
2022/10/16 06:42:29;;;;;;;6.38;3.75;;;;;;;;;;4846687;29;20049;-81
2022/10/16 06:44:55;;;;;;;5.45;3.78;;;;;;;11.86;100.00;68083.41;4837144;29;20060;-79
2022/10/16 06:47:20;;;;;;;5.55;3.20;;;;;;;11.87;100.00;68086.66;4835605;29;20080;-80
2022/10/16 06:49:45;;;;;;;4.57;3.25;;;;;;;11.83;100.00;68082.66;4834435;29;20057;-80
2022/10/16 06:52:11;;;;;;;8.07;3.60;;;;;;;11.82;100.00;68081.50;4830972;29;20165;-81
2022/10/16 06:54:36;;;;;;;5.80;3.13;;;;;;;11.84;100.00;68088.56;4834345;29;20517;-80
2022/10/16 06:57:01;;;;;;;4.72;3.05;;;;;;;11.84;100.00;68083.22;4835572;29;20444;-80
2022/10/16 06:59:27;;;;;;;6.22;3.50;;;;;;;11.82;100.00;68078.28;4832707;29;20057;-80
2022/10/16 07:01:52;;;;;;;5.68;3.13;;;;;;;11.83;100.00;68080.00;4839714;29;20050;-80
2022/10/16 07:04:18;;;;;;;6.00;4.03;;;;;;;11.83;100.00;68080.00;4837450;29;20163;-79
2022/10/16 07:06:43;;;;;;;8.00;3.90;;;;;;;11.86;100.00;68083.41;4839110;29;20553;-80
2022/10/16 07:09:09;;;;;;;5.95;3.80;;;;;;;;;;4834231;29;20191;-80
2022/10/16 07:11:37;;;;;;;5.68;3.97;;;;;;;11.98;100.00;68095.91;4837249;29;20088;-80
2022/10/16 07:14:03;;;;;;;7.18;4.40;;;;;;;12.03;100.00;68102.16;4835649;29;20033;-79
2022/10/16 07:16:31;;;;;;;7.30;3.85;;;;;;;12.09;100.00;68108.41;4837893;29;20071;-79
2022/10/16 07:18:59;;;;;;;6.00;3.42;;;;;;;12.14;100.00;68116.75;4828028;29;20106;-78
2022/10/16 07:21:26;;;;;;;6.57;3.63;;;;;;;12.21;100.00;68121.47;4818039;29;20050;-80
2022/10/16 07:23:52;;;;;;;5.75;3.70;;;;;;;;;;4830151;29;20065;-78
2022/10/16 07:26:18;;;;;;;8.10;4.20;;;;;;;12.31;100.00;68130.16;4816985;29;20062;-80
2022/10/16 07:28:43;;;;;;;6.88;3.88;;;;;;;12.35;100.00;68140.06;4841237;29;20046;-77
2022/10/16 07:31:16;;;;;;;8.07;3.53;;;;;;;12.39;100.00;68139.81;4846679;29;20043;-77
2022/10/16 07:33:44;;;;;;;5.22;2.95;;;;;;;;;;4864811;29;20037;-78
2022/10/16 07:36:09;;;;;;;6.07;3.10;;;;;;;12.50;100.00;68156.53;4831083;29;20039;-81
2022/10/16 07:38:35;;;;;;;5.85;3.28;;;;;;;12.58;100.00;68165.63;4832871;29;20053;-80
2022/10/16 07:41:05;;;;;;;6.30;3.05;;;;;;;12.62;100.00;68168.06;4836033;29;20041;-80
2022/10/16 07:43:31;;;;;;;6.30;3.38;;;;;;;12.69;100.00;68178.13;4837801;29;20540;-80
2022/10/16 07:45:57;;;;;;;4.97;3.42;;;;;;;12.75;100.00;68179.59;4836412;29;20050;-80
2022/10/16 07:48:23;;;;;;;7.07;3.25;;;;;;;12.83;100.00;68194.03;4836827;29;20816;-81
2022/10/16 07:50:49;;;;;;;8.95;3.60;;;;;;;12.88;100.00;68199.72;4836761;29;20453;-80
2022/10/16 07:53:14;;;;;;;6.78;3.63;;;;;;;12.95;100.00;68204.44;4838052;29;20143;-81
2022/10/16 07:55:40;;;;;;;6.75;3.47;;;;;;;13.02;100.00;68214.50;4838631;29;20050;-81
2022/10/16 07:58:06;;;;;;;5.22;2.83;;;;;;;13.03;100.00;68212.97;4839338;29;20049;-82
2022/10/16 08:00:32;;;;;;;5.70;3.33;;;;;;;13.09;100.00;68222.47;4840990;29;20053;-81
2022/10/16 08:03:01;;;;;;;4.07;2.40;;;;;;;13.15;100.00;68226.03;4841521;29;20046;-81
2022/10/16 08:05:27;;;;;;;5.65;3.05;;;;;;;;;;4842902;29;20078;-78
2022/10/16 08:07:53;;;;;;;5.07;2.70;;;;;;;13.24;100.00;68238.97;4846151;29;20058;-78
2022/10/16 08:10:22;;;;;;;6.03;2.70;;;;;;;13.26;100.00;68239.16;4842210;29;20147;-82
2022/10/16 08:12:47;;;;;;;8.23;3.10;;;;;;;13.35;100.00;68245.56;4842921;29;20034;-80
2022/10/16 08:15:12;;;;;;;6.38;2.85;;;;;;;13.41;100.00;68258.31;4839882;29;20175;-82
2022/10/16 08:17:38;;;;;;;8.55;3.58;;;;;;;13.50;100.00;68267.97;4825237;29;20046;-79
2022/10/16 08:20:04;;;;;;;3.30;2.20;;;;;;;13.51;100.00;68269.09;4834753;29;20049;-80
2022/10/16 08:22:29;;;;;;;4.55;1.83;;;;;;;;;;4839459;29;20400;-79
2022/10/16 08:24:54;;;;;;;4.22;2.33;;;;;;;13.63;100.00;68282.19;4849867;29;20053;-80
2022/10/16 08:27:20;;;;;;;4.72;2.20;;;;;;;13.68;100.00;68283.09;4849235;29;20210;-82
2022/10/16 08:29:45;;;;;;;4.03;2.15;;;;;;;13.70;100.00;68290.72;4847253;29;20042;-79
2022/10/16 08:32:11;;;;;;;6.75;2.42;;;;;;;13.81;100.00;68299.41;4843140;29;20057;-80
2022/10/16 08:34:36;;;;;;;4.90;1.95;;;;;;;13.87;100.00;68306.81;4850113;29;20050;-79
2022/10/16 08:37:01;;;;;;;4.63;1.83;;;;;;;;;;4838081;29;20061;-80
2022/10/16 08:39:27;;;;;;;5.00;2.15;;;;;;;13.99;100.00;68322.59;4839548;29;20041;-81
2022/10/16 08:42:14;;;;;;;4.18;1.88;;;;;;;;;;4840943;29;20045;-80
2022/10/16 08:44:49;;;;;;;4.97;1.77;;;;;;;14.13;100.00;68333.16;4838324;29;20072;-82
2022/10/16 08:50:13;;;;;;;5.25;1.70;;;;;;;14.22;100.00;68343.41;977220;27;20338;-81
2022/10/16 08:53:04;;;;;;;4.47;1.58;;;;;;;;;;4867563;29;20049;-79
2022/10/16 08:56:05;;;;;;;4.28;1.20;;;;;;;14.25;100.00;68351.03;4852487;29;20049;-81
2022/10/16 08:58:44;;;;;;;6.25;1.77;;;;;;;14.23;100.00;68349.88;4851908;29;20062;-80
2022/10/16 09:05:26;;;;;;;6.28;1.98;;;;;;;14.33;100.00;68355.34;4840908;29;20073;-80
2022/10/16 09:08:39;;;;;;;4.85;2.13;;;;;;;14.36;100.00;68363.56;4777881;29;20054;-80
2022/10/16 09:11:33;;;;;;;6.18;2.90;;;;;;;14.39;100.00;68364.28;4734672;30;20067;-79
2022/10/16 09:14:20;;;;;;;7.45;2.75;;;;;;;14.38;100.00;68365.81;4797316;29;20504;-80
2022/10/16 09:16:53;;;;;;;7.32;2.92;;;;;;;14.49;100.00;68375.09;4772120;29;20822;-81
2022/10/16 09:19:44;;;;;;;5.78;2.92;;;;;;;14.60;100.00;68390.88;4759682;29;20058;-82
2022/10/16 09:22:17;;;;;;;7.40;3.95;;;;;;;14.58;100.00;68383.25;4761859;29;20047;-82
2022/10/16 09:24:42;;;;;;;7.97;4.25;;;;;;;14.64;100.00;68390.09;4763652;29;20052;-82
2022/10/16 09:27:10;;;;;;;11.35;5.78;;;;;;;;;;4751093;29;20066;-83
2022/10/16 09:29:35;;;;;;;12.57;6.30;;;;;;;14.79;100.00;68409.28;4781443;29;20110;-81
2022/10/16 09:32:19;;;;;;;16.45;7.53;;;;;;;14.88;100.00;68421.63;4776527;29;20119;-82
2022/10/16 09:34:53;;;;;;;14.55;7.80;;;;;;;14.93;100.00;68421.38;4763983;30;20126;-81
2022/10/16 09:37:22;;;;;;;15.32;8.85;;;;;;;14.94;100.00;68427.91;4786237;29;20046;-82
2022/10/16 09:39:54;;;;;;;14.38;8.23;;;;;;;14.99;100.00;68434.16;4866211;29;20479;-81
2022/10/16 09:42:32;;;;;;;14.93;8.38;;;;;;;15.03;100.00;68433.34;4891482;29;20132;-82
2022/10/16 09:44:57;;;;;;;11.90;8.02;;;;;;;15.12;100.00;68440.34;4901415;29;20106;-81
2022/10/16 09:47:26;;;;;;;19.40;8.15;;;;;;;15.22;100.00;68459.22;4893386;29;20049;-81
2022/10/16 09:50:02;;;;;;;12.05;7.10;;;;;;;15.29;100.00;68465.06;4894516;29;20123;-80
2022/10/16 09:52:30;;;;;;;14.20;7.45;;;;;;;15.35;100.00;68471.91;4911059;29;20138;-79
2022/10/16 09:54:59;;;;;;;9.27;6.47;;;;;;;15.37;99.23;68473.63;4895021;29;20049;-79
2022/10/16 09:57:25;;;;;;;10.20;5.53;;;;;;;15.40;98.82;68474.34;4895039;29;20052;-80
2022/10/16 09:59:51;;;;;;;9.35;5.68;;;;;;;;;;4894514;29;20055;-80
2022/10/16 10:02:19;;;;;;;10.88;5.88;;;;;;;15.31;98.87;68466.78;4895392;29;20041;-80
2022/10/16 10:04:51;;;;;;;7.77;4.80;;;;;;;15.44;98.14;68484.28;4895310;29;20195;-79
2022/10/16 10:07:23;;;;;;;7.65;5.07;;;;;;;15.51;97.53;68489.56;4897212;29;20056;-79
2022/10/16 10:09:48;;;;;;;8.63;4.85;;;;;;;15.47;96.90;68487.13;4893891;29;20048;-81
2022/10/16 10:12:24;;;;;;;8.55;5.00;;;;;;;15.43;97.34;68483.13;4894424;29;20033;-80
2022/10/16 10:14:52;;;;;;;6.95;3.90;;;;;;;15.55;96.73;68491.44;4892768;29;20040;-80
2022/10/16 10:17:19;;;;;;;9.63;4.20;;;;;;;15.64;96.85;68503.25;4893189;29;20048;-81
2022/10/16 10:19:47;;;;;;;8.23;3.70;;;;;;;15.71;95.08;68511.81;4898767;29;20044;-82
2022/10/16 10:22:26;;;;;;;9.40;3.85;;;;;;;15.75;93.57;68513.69;4894518;29;20048;-81
2022/10/16 10:24:55;;;;;;;;;;;;;;;15.88;91.65;68527.94;4898521;29;20040;-81
2022/10/16 10:27:23;;;;;;;;;;;;;;;15.82;92.77;68523.75;4898948;29;19927;-80
2022/10/16 10:30:01;;;;;;;8.18;3.03;;;;;;;15.78;92.59;68522.47;4893241;29;19966;-81
2022/10/16 10:32:34;;;;;;;8.32;2.88;;;;;;;15.92;92.41;68532.47;4898413;29;20831;-81
2022/10/16 10:35:06;;;;;;;8.63;3.05;;;;;;;15.82;88.58;68521.06;4896806;29;20439;-82
2022/10/16 10:37:41;;;;;;;8.10;3.63;;;;;;;15.78;89.84;68516.53;4898408;29;20045;-81
2022/10/16 10:40:23;;;;;;;6.78;2.88;;;;;;;15.92;90.08;68534.59;4886591;29;20044;-80
2022/10/16 10:43:34;;;;;;;8.32;3.22;;;;;;;16.00;89.11;68546.97;4892838;29;20590;-80
2022/10/16 10:46:04;;;;;;;6.88;2.88;;;;;;;16.08;88.27;68554.94;4888544;29;20104;-81
2022/10/16 10:48:38;;;;;;;6.07;2.85;;;;;;;16.09;87.20;68553.41;4891397;29;20064;-80
2022/10/16 10:51:10;;;;;;;8.25;2.17;;;;;;;;;;4891095;29;21514;-82
2022/10/16 10:53:42;;;;;;;8.98;2.72;;;;;;;;;;4893098;29;20044;-83
2022/10/16 10:56:20;;;;;;;6.80;2.25;;;;;;;16.13;87.24;68555.28;4892792;29;20068;-80
2022/10/16 10:58:59;;;;;;;12.38;3.15;;;;;;;16.06;86.96;68553.25;4889526;29;20048;-81
2022/10/16 11:01:50;;;;;;;5.53;2.00;;;;;;;15.99;86.64;68545.81;4888534;29;20123;-83
2022/10/16 11:04:46;;;;;;;6.38;2.00;;;;;;;16.16;87.27;68564.63;4922239;29;20044;-80
2022/10/16 11:07:27;;;;;;;5.45;1.95;;;;;;;16.26;87.44;68572.78;4892540;29;20053;-81
2022/10/16 11:10:04;;;;;;;8.60;2.10;;;;;;;16.45;86.80;68591.16;4891864;29;20058;-82
2022/10/16 11:12:38;;;;;;;7.95;2.35;;;;;;;16.50;86.81;68602.25;4889956;29;21032;-83
2022/10/16 11:15:33;;;;;;;12.88;2.42;;;;;;;16.62;84.10;68609.97;4890362;29;20139;-81
2022/10/16 11:18:10;;;;;;;10.68;2.40;;;;;;;16.56;82.94;68608.53;4885878;29;20040;-81
2022/10/16 11:21:08;;;;;;;6.47;2.22;;;;;;;16.52;83.37;68601.84;4893343;29;20068;-82
2022/10/16 11:23:36;;;;;;;4.68;1.83;;;;;;;;;;4878480;29;20052;-83
2022/10/16 11:26:09;;;;;;;9.20;2.27;;;;;;;16.60;83.99;68608.28;4892602;29;20548;-81
2022/10/16 11:28:42;;;;;;;8.65;2.28;;;;;;;16.72;84.12;68620.81;4895100;29;20448;-81
2022/10/16 11:31:21;;;;;;;6.90;2.08;;;;;;;16.75;80.86;68624.81;4890793;29;20043;-83
2022/10/16 11:34:32;;;;;;;6.28;2.10;;;;;;;16.99;82.76;68653.75;4887819;29;20119;-81
2022/10/16 11:37:05;;;;;;;9.38;1.80;;;;;;;16.94;80.85;68650.72;4887661;29;20041;-80
2022/10/16 11:39:32;;;;;;;8.63;1.92;;;;;;;16.95;81.85;68652.44;4853855;29;20673;-81
2022/10/16 11:42:11;;;;;;;4.70;1.88;;;;;;;17.07;79.72;68660.19;4888292;29;20049;-79
2022/10/16 11:45:16;;;;;;;5.95;1.80;;;;;;;17.17;80.71;68673.69;4884775;29;20083;-79
2022/10/16 11:47:48;;;;;;;7.88;2.05;;;;;;;17.09;78.95;68663.03;4886478;29;20060;-81
2022/10/16 11:50:25;;;;;;;8.10;2.05;;;;;;;17.15;79.55;68672.00;4892356;29;20044;-79
2022/10/16 11:53:18;;;;;;;7.05;1.83;;;;;;;17.20;80.33;68677.69;4894542;29;20094;-82
2022/10/16 11:55:45;;;;;;;7.65;1.95;;;;;;;17.40;80.59;68699.94;4885775;29;20048;-79
2022/10/16 11:58:23;;;;;;;5.95;1.73;;;;;;;17.40;76.06;68702.06;4893565;29;20144;-82
2022/10/16 12:00:57;;;;;;;6.57;2.00;;;;;;;17.47;77.56;68707.94;4893053;29;20041;-81
2022/10/16 12:03:26;;;;;;;9.20;1.80;;;;;;;17.56;76.12;68718.19;4891005;29;20060;-81
2022/10/16 12:06:33;;;;;;;5.63;1.97;;;;;;;17.69;77.98;68734.59;4893626;29;20136;-80
2022/10/16 12:08:59;;;;;;;11.85;1.90;;;;;;;17.80;76.18;68745.03;4887213;29;21070;-80
2022/10/16 12:11:28;;;;;;;7.97;1.83;;;;;;;17.84;76.09;68745.75;4888452;29;20751;-80
2022/10/16 12:14:11;;;;;;;10.27;2.37;;;;;;;17.92;75.79;68755.47;4919291;29;20100;-80
2022/10/16 12:17:00;;;;;;;6.00;1.58;;;;;;;17.78;75.60;68740.06;4867136;29;20061;-80
2022/10/16 12:19:27;;;;;;;5.30;1.63;;;;;;;17.69;75.29;68735.16;4891856;29;20390;-82
2022/10/16 12:21:56;;;;;;;8.23;1.58;;;;;;;17.72;76.32;68735.91;4890448;29;20063;-83
2022/10/16 12:24:29;;;;;;;;;;;;;;;17.89;76.71;68756.84;4891654;29;20041;-81
2022/10/16 12:26:55;;;;;;;8.82;1.67;;;;;;;17.93;76.90;68756.03;4893486;29;19926;-84
2022/10/16 12:29:20;;;;;;;7.85;1.58;;;;;;;18.08;73.45;68775.84;4891765;29;20044;-82
2022/10/16 12:31:48;;;;;;;6.40;1.65;;;;;;;17.96;70.94;68759.47;4893265;29;20084;-82
2022/10/16 12:34:41;;;;;;;7.85;1.65;;;;;;;18.02;70.35;68766.88;4892130;29;20112;-84
2022/10/16 12:37:24;;;;;;;8.13;1.30;;;;;;;17.73;69.22;68734.34;4891384;29;20408;-83
2022/10/16 12:39:51;;;;;;;5.60;1.40;;;;;;;17.72;72.24;68733.22;4895958;29;20036;-82
2022/10/16 12:42:22;;;;;;;6.18;1.33;;;;;;;17.92;74.21;68755.47;4908234;29;20052;-83
2022/10/16 12:44:48;;;;;;;7.57;1.85;;;;;;;18.05;73.03;68769.75;4899061;29;20045;-81
2022/10/16 12:47:24;;;;;;;8.68;2.15;;;;;;;18.05;73.78;68772.44;4898247;29;20128;-81
2022/10/16 12:49:54;;;;;;;7.80;1.80;;;;;;;18.12;73.31;68783.09;4899898;29;20039;-82
2022/10/16 12:52:34;;;;;;;7.72;1.65;;;;;;;18.25;68.56;68792.00;4903849;29;20049;-81
2022/10/16 12:55:00;;;;;;;8.65;1.70;;;;;;;18.26;68.40;68793.13;4930921;29;20048;-80
2022/10/16 12:58:08;;;;;;;7.05;1.73;;;;;;;18.18;66.17;68784.59;4903040;29;20123;-81
2022/10/16 13:00:45;;;;;;;5.47;1.35;;;;;;;18.39;67.05;68807.97;4913409;29;20048;-83
2022/10/16 13:03:44;;;;;;;5.57;1.73;;;;;;;18.49;69.23;68824.22;4906136;29;20489;-82
2022/10/16 13:06:37;;;;;;;6.03;1.20;;;;;;;18.49;68.55;68816.13;4909081;29;20079;-82
2022/10/16 13:09:21;;;;;;;7.60;1.48;;;;;;;18.45;70.13;68814.25;5021140;23;20051;-83
2022/10/16 13:12:09;;;;;;;6.00;1.30;;;;;;;18.41;71.46;68812.38;4926282;29;20054;-82
2022/10/16 13:14:53;;;;;;;9.00;1.20;;;;;;;18.54;70.86;68827.22;4939371;29;20084;-83
2022/10/16 13:17:36;;;;;;;5.85;1.70;;;;;;;18.65;71.03;68837.09;4929125;28;20040;-81
2022/10/16 13:20:33;;;;;;;10.93;1.80;;;;;;;18.63;72.28;68834.81;4922630;29;20055;-81
2022/10/16 13:23:14;;;;;;;6.75;1.55;;;;;;;18.74;71.70;68846.25;4916604;29;20139;-81
2022/10/16 13:25:42;;;;;;;6.57;1.45;;;;;;;18.90;72.73;68864.50;4906951;29;20583;-81
2022/10/16 13:28:34;;;;;;;7.75;1.48;;;;;;;19.03;70.36;68882.06;4919526;23;20475;-81
2022/10/16 13:34:12;;;;;;;10.98;1.98;;;;;;;19.05;71.66;68881.66;4892419;29;20083;-83
2022/10/16 13:36:50;;;;;;;6.90;1.88;;;;;;;18.89;70.00;68863.38;4849773;29;20060;-82
2022/10/16 13:39:25;;;;;;;7.43;1.63;;;;;;;18.74;71.51;68843.56;4845912;29;20137;-81
2022/10/16 13:42:05;;;;;;;5.28;1.33;;;;;;;18.80;69.91;68850.97;4855174;29;20038;-81
2022/10/16 13:44:49;;;;;;;10.63;1.88;;;;;;;18.99;71.94;68876.91;4849501;29;20061;-81
2022/10/16 13:52:21;;;;;;;10.73;1.80;;;;;;;19.15;74.30;68890.38;4937549;28;20051;-81
2022/10/16 13:54:47;;;;;;;8.05;2.28;;;;;;;19.26;69.35;68904.50;4935954;29;20035;-82
2022/10/16 13:57:14;;;;;;;7.30;2.30;;;;;;;19.20;69.94;68894.94;4934701;28;20042;-81
2022/10/16 13:59:41;;;;;;;10.98;3.17;;;;;;;19.42;68.97;68924.91;4917014;29;20111;-82
2022/10/16 14:02:20;;;;;;;7.68;1.95;;;;;;;19.43;67.08;68923.94;4906973;28;20067;-83
2022/10/16 14:04:47;;;;;;;5.22;1.90;;;;;;;19.55;68.71;68937.06;4921014;28;20047;-81
2022/10/16 14:07:22;;;;;;;8.10;1.50;;;;;;;19.61;66.43;68944.47;4916877;29;20052;-81
2022/10/16 14:09:50;;;;;;;6.18;1.75;;;;;;;19.44;70.09;68927.75;4915568;29;20040;-79
2022/10/16 14:12:16;;;;;;;5.35;1.60;;;;;;;19.43;66.29;68926.06;4914455;29;20040;-81
2022/10/16 14:14:44;;;;;;;5.82;1.30;;;;;;;19.41;69.98;68921.63;4904446;29;20048;-80
2022/10/16 14:17:23;;;;;;;8.70;1.75;;;;;;;19.36;67.11;68916.50;4915127;29;20060;-80
2022/10/16 14:19:51;;;;;;;7.75;1.42;;;;;;;19.22;67.07;68900.50;4913678;29;20059;-81
2022/10/16 14:22:26;;;;;;;8.93;1.50;;;;;;;19.24;66.38;68900.09;4904286;29;20436;-83
2022/10/16 14:24:51;;;;;;;11.10;1.60;;;;;;;19.36;67.77;68918.63;4914052;29;20060;-82
2022/10/16 14:27:35;;;;;;;6.55;1.70;;;;;;;19.56;68.63;68938.78;4915661;29;20402;-82
2022/10/16 14:30:18;;;;;;;7.35;1.80;;;;;;;;;;4915120;28;20448;-82
2022/10/16 14:33:02;;;;;;;5.00;1.42;;;;;;;19.47;66.23;68928.47;4914260;29;20096;-83
2022/10/16 14:35:33;;;;;;;7.40;1.58;;;;;;;19.45;67.64;68931.63;4913151;29;20075;-83
2022/10/16 14:38:01;;;;;;;4.90;1.67;;;;;;;19.50;69.16;68931.91;4913258;29;20044;-82
2022/10/16 14:40:33;;;;;;;4.63;1.17;;;;;;;19.36;65.72;68913.22;4913783;29;20488;-82
2022/10/16 14:43:00;;;;;;;5.50;1.20;;;;;;;19.19;67.40;68896.50;4912113;29;20492;-83
2022/10/16 14:45:29;;;;;;;7.80;1.55;;;;;;;19.37;70.33;68919.78;4909698;29;20052;-81
2022/10/16 14:47:58;;;;;;;;;;;;;;;19.56;69.03;68938.78;4913323;29;20051;-82
2022/10/16 14:50:24;;;;;;;8.90;1.60;;;;;;;19.61;68.43;68946.63;4882924;29;19980;-82
2022/10/16 14:52:50;;;;;;;6.57;1.63;;;;;;;19.65;67.85;68947.91;4894853;29;20056;-83
2022/10/16 14:55:16;;;;;;;7.43;1.42;;;;;;;19.25;67.83;68900.66;4883990;29;20568;-80
2022/10/16 14:57:43;;;;;;;9.15;1.50;;;;;;;19.02;70.14;68880.94;4891079;29;20584;-81
2022/10/16 15:00:16;;;;;;;6.80;1.60;;;;;;;18.76;69.92;68853.91;4888367;29;20044;-81
2022/10/16 15:02:42;;;;;;;5.00;1.25;;;;;;;18.72;71.57;68847.22;4887617;29;20053;-81
2022/10/16 15:05:38;;;;;;;7.25;1.33;;;;;;;18.62;72.24;68835.81;4886890;29;20045;-82
2022/10/16 15:08:04;;;;;;;7.70;1.25;;;;;;;18.59;74.33;68829.69;4877091;29;20036;-80
2022/10/16 15:10:32;;;;;;;6.18;1.20;;;;;;;18.43;75.58;68812.53;4895800;29;20130;-81
2022/10/16 15:12:58;;;;;;;7.20;1.63;;;;;;;18.51;76.43;68821.09;4875665;29;20060;-81
2022/10/16 15:15:23;;;;;;;4.97;1.42;;;;;;;18.51;76.12;68826.50;4900540;29;20048;-81
2022/10/16 15:17:55;;;;;;;5.20;1.33;;;;;;;18.44;74.52;68813.09;4911169;29;20060;-82
2022/10/16 15:20:21;;;;;;;7.75;1.88;;;;;;;18.33;77.41;68797.88;4907850;28;20045;-83
2022/10/16 15:44:57;;;;;;;10.57;2.55;;;;;;;17.47;84.78;68707.94;4953533;23;20511;-83
2022/10/16 15:47:32;;;;;;;7.20;1.75;;;;;;;17.40;85.29;68699.38;4931589;28;20047;-83
2022/10/16 15:53:21;;;;;;;8.20;2.17;;;;;;;17.12;87.43;68665.91;4908627;23;20107;-77
2022/10/16 15:55:46;;;;;;;6.93;1.80;;;;;;;17.05;89.22;68660.59;4928773;29;20044;-78
2022/10/16 15:58:12;;;;;;;6.45;2.05;;;;;;;16.87;89.31;68641.19;4921868;29;20036;-77
2022/10/16 16:00:38;;;;;;;7.10;1.85;;;;;;;16.73;90.92;68622.53;4919864;29;20052;-78
2022/10/16 16:03:03;;;;;;;5.90;1.65;;;;;;;16.60;92.18;68605.00;4920343;29;20038;-77
2022/10/16 16:05:28;;;;;;;11.52;1.75;;;;;;;16.52;93.22;68603.97;4917637;29;20056;-77
2022/10/16 16:07:54;;;;;;;8.98;2.30;;;;;;;16.44;93.31;68590.59;4912919;29;20515;-78
2022/10/16 16:10:23;;;;;;;13.23;2.45;;;;;;;16.37;93.14;68584.72;4921228;29;20070;-78
2022/10/16 16:12:51;;;;;;;8.60;2.25;;;;;;;16.32;93.82;68582.31;4932970;29;20439;-78
2022/10/16 16:15:18;;;;;;;8.32;2.28;;;;;;;16.31;94.60;68575.22;4933265;29;20040;-77
2022/10/16 16:17:44;;;;;;;9.38;2.80;;;;;;;16.24;95.03;68571.06;4899569;29;20140;-77
2022/10/16 16:20:10;;;;;;;9.90;2.53;;;;;;;16.15;96.45;68562.94;4931654;29;20126;-78
2022/10/16 16:22:35;;;;;;;10.27;2.65;;;;;;;16.10;96.98;68554.53;4921195;29;20621;-78
2022/10/16 16:25:01;;;;;;;7.32;2.65;;;;;;;16.02;96.52;68546.56;4929522;29;20071;-78
2022/10/16 16:27:28;;;;;;;9.85;2.90;;;;;;;15.95;97.10;68541.25;4930754;29;20035;-78
2022/10/16 16:29:55;;;;;;;11.20;3.25;;;;;;;15.86;97.02;68527.75;4925895;29;20040;-77
2022/10/16 16:32:20;;;;;;;5.28;2.90;;;;;;;15.83;98.23;68524.91;4924321;29;20058;-78
2022/10/16 16:34:45;;;;;;;6.68;2.42;;;;;;;15.71;98.53;68508.56;4925660;29;20036;-77